createdAt,value
2022-08-26T00:00:31.183Z,25.80
2022-08-26T00:01:31.175Z,21.80
2022-08-26T00:02:31.197Z,23.10
2022-08-26T00:03:31.135Z,22.60
2022-08-26T00:04:31.115Z,22.20
2022-08-26T00:05:31.128Z,26.40
2022-08-26T00:06:31.093Z,21.80
2022-08-26T00:07:31.106Z,19.20
2022-08-26T00:08:31.066Z,24.00
2022-08-26T00:09:31.055Z,20.90
2022-08-26T00:10:31.043Z,22.70
2022-08-26T00:11:31.037Z,25.00
2022-08-26T00:12:36.164Z,25.00
2022-08-26T00:13:32.004Z,20.70
2022-08-26T00:14:31.609Z,21.60
2022-08-26T00:15:30.978Z,23.70
2022-08-26T00:16:31.022Z,24.40
2022-08-26T00:17:30.965Z,18.50
2022-08-26T00:18:30.956Z,21.80
2022-08-26T00:19:31.934Z,21.50
2022-08-26T00:20:30.909Z,23.10
2022-08-26T00:21:30.901Z,22.20
2022-08-26T00:22:30.886Z,21.20
2022-08-26T00:23:30.867Z,26.00
2022-08-26T00:24:30.854Z,23.50
2022-08-26T00:25:30.846Z,28.20
2022-08-26T00:26:30.841Z,20.30
2022-08-26T00:27:30.825Z,19.50
2022-08-26T00:28:30.808Z,22.70
2022-08-26T00:29:31.939Z,25.20
2022-08-26T00:30:31.775Z,24.00
2022-08-26T00:31:31.210Z,22.40
2022-08-26T00:32:30.762Z,26.00
2022-08-26T00:33:30.736Z,26.70
2022-08-26T00:34:30.718Z,27.60
2022-08-26T00:35:30.710Z,25.50
2022-08-26T00:36:30.687Z,25.50
2022-08-26T00:37:30.694Z,26.30
2022-08-26T00:38:30.665Z,23.90
2022-08-26T00:39:30.655Z,25.40
2022-08-26T00:40:30.718Z,27.30
2022-08-26T00:41:30.645Z,24.80
2022-08-26T00:42:30.624Z,23.30
2022-08-26T00:43:30.610Z,29.70
2022-08-26T00:44:31.590Z,25.10
2022-08-26T00:45:30.622Z,21.60
2022-08-26T00:46:30.556Z,23.90
2022-08-26T00:47:31.035Z,20.90
2022-08-26T00:48:31.777Z,22.00
2022-08-26T00:49:30.518Z,18.90
2022-08-26T00:50:30.518Z,23.30
2022-08-26T00:51:30.504Z,19.70
2022-08-26T00:52:30.487Z,22.70
2022-08-26T00:53:30.476Z,18.30
2022-08-26T00:54:30.450Z,20.00
2022-08-26T00:55:38.024Z,20.20
2022-08-26T00:56:31.443Z,23.00
2022-08-26T00:57:30.428Z,27.10
2022-08-26T00:58:30.403Z,24.40
2022-08-26T00:59:33.036Z,21.50
2022-08-26T01:00:30.368Z,19.30
2022-08-26T01:01:30.387Z,21.00
2022-08-26T01:02:30.375Z,23.40
2022-08-26T01:03:30.329Z,21.90
2022-08-26T01:04:30.333Z,22.20
2022-08-26T01:05:30.309Z,23.30
2022-08-26T01:06:30.297Z,21.50
2022-08-26T01:07:31.175Z,18.70
2022-08-26T01:08:30.272Z,20.50
2022-08-26T01:09:30.258Z,21.00
2022-08-26T01:10:30.257Z,24.10
2022-08-26T01:11:30.258Z,23.90
2022-08-26T01:12:30.212Z,19.00
2022-08-26T01:13:30.216Z,27.00
2022-08-26T01:14:30.190Z,21.90
2022-08-26T01:15:30.179Z,19.30
2022-08-26T01:16:30.258Z,23.40
2022-08-26T01:17:30.149Z,18.00
2022-08-26T01:18:30.132Z,21.20
2022-08-26T01:19:30.120Z,20.40
2022-08-26T01:20:30.110Z,22.90
2022-08-26T01:21:30.177Z,20.20
2022-08-26T01:22:30.079Z,24.40
2022-08-26T01:23:30.067Z,18.90
2022-08-26T01:24:30.051Z,23.50
2022-08-26T01:25:30.051Z,24.10
2022-08-26T01:26:30.055Z,24.80
2022-08-26T01:27:30.018Z,26.30
2022-08-26T01:28:30.016Z,20.70
2022-08-26T01:29:30.003Z,23.70
2022-08-26T01:30:29.994Z,22.70
2022-08-26T01:31:30.082Z,19.00
2022-08-26T01:32:29.951Z,22.60
2022-08-26T01:33:29.946Z,21.70
2022-08-26T01:34:30.924Z,21.30
2022-08-26T01:35:29.912Z,20.50
2022-08-26T01:36:29.911Z,22.30
2022-08-26T01:37:29.892Z,20.20
2022-08-26T01:38:31.640Z,21.30
2022-08-26T01:39:29.862Z,20.80
2022-08-26T01:40:29.866Z,19.60
2022-08-26T01:41:29.839Z,22.50
2022-08-26T01:42:29.811Z,20.50
2022-08-26T01:43:29.814Z,18.80
2022-08-26T01:44:29.802Z,21.50
2022-08-26T01:45:29.804Z,26.60
2022-08-26T01:46:29.759Z,20.40
2022-08-26T01:47:30.052Z,18.50
2022-08-26T01:48:29.751Z,23.00
2022-08-26T01:49:29.723Z,21.70
2022-08-26T01:50:30.228Z,24.60
2022-08-26T01:51:29.701Z,23.10
2022-08-26T01:52:29.697Z,25.90
2022-08-26T01:53:29.670Z,23.40
2022-08-26T01:54:29.657Z,18.40
2022-08-26T01:55:33.167Z,20.60
2022-08-26T01:56:33.074Z,21.50
2022-08-26T01:57:29.624Z,21.80
2022-08-26T01:58:29.600Z,25.60
2022-08-26T01:59:29.601Z,22.60
2022-08-26T02:00:29.595Z,19.00
2022-08-26T02:01:29.560Z,16.60
2022-08-26T02:02:29.558Z,21.60
2022-08-26T02:03:29.577Z,19.30
2022-08-26T02:04:29.578Z,19.20
2022-08-26T02:05:29.531Z,19.90
2022-08-26T02:06:29.495Z,23.50
2022-08-26T02:07:29.488Z,23.70
2022-08-26T02:08:29.498Z,21.20
2022-08-26T02:09:29.460Z,26.90
2022-08-26T02:10:29.459Z,25.80
2022-08-26T02:11:29.443Z,25.90
2022-08-26T02:12:29.412Z,22.30
2022-08-26T02:13:29.413Z,21.00
2022-08-26T02:14:29.385Z,20.50
2022-08-26T02:15:29.407Z,19.50
2022-08-26T02:16:29.400Z,18.00
2022-08-26T02:17:29.360Z,24.30
2022-08-26T02:18:29.345Z,20.40
2022-08-26T02:19:29.334Z,20.80
2022-08-26T02:20:29.325Z,20.30
2022-08-26T02:21:29.298Z,21.10
2022-08-26T02:22:29.310Z,18.00
2022-08-26T02:23:29.274Z,22.00
2022-08-26T02:24:29.267Z,19.50
2022-08-26T02:25:29.252Z,22.90
2022-08-26T02:26:29.232Z,23.00
2022-08-26T02:27:30.326Z,21.30
2022-08-26T02:28:29.210Z,17.50
2022-08-26T02:29:29.191Z,19.70
2022-08-26T02:30:29.190Z,16.40
2022-08-26T02:31:29.210Z,21.30
2022-08-26T02:32:29.165Z,20.40
2022-08-26T02:33:29.131Z,20.00
2022-08-26T02:34:31.314Z,21.20
2022-08-26T02:35:29.126Z,23.20
2022-08-26T02:36:29.101Z,21.00
2022-08-26T02:37:29.095Z,22.20
2022-08-26T02:38:29.074Z,19.90
2022-08-26T02:39:29.066Z,19.70
2022-08-26T02:40:29.086Z,20.20
2022-08-26T02:41:29.031Z,18.70
2022-08-26T02:42:29.023Z,19.20
2022-08-26T02:43:32.886Z,20.60
2022-08-26T02:44:29.013Z,21.80
2022-08-26T02:45:28.984Z,21.20
2022-08-26T02:46:30.094Z,22.20
2022-08-26T02:47:29.239Z,18.20
2022-08-26T02:48:28.941Z,21.80
2022-08-26T02:49:28.941Z,23.00
2022-08-26T02:50:28.918Z,20.70
2022-08-26T02:51:28.894Z,20.00
2022-08-26T02:52:28.887Z,18.60
2022-08-26T02:53:28.871Z,18.10
2022-08-26T02:54:28.873Z,19.60
2022-08-26T02:55:28.846Z,18.80
2022-08-26T02:56:28.849Z,19.20
2022-08-26T02:57:28.842Z,20.50
2022-08-26T02:58:28.812Z,18.60
2022-08-26T02:59:28.812Z,17.50
2022-08-26T03:00:28.880Z,17.90
2022-08-26T03:01:28.793Z,19.00
2022-08-26T03:02:28.770Z,20.70
2022-08-26T03:03:28.741Z,20.00
2022-08-26T03:04:28.743Z,19.50
2022-08-26T03:05:28.712Z,20.40
2022-08-26T03:06:28.703Z,20.70
2022-08-26T03:07:28.684Z,19.10
2022-08-26T03:08:28.675Z,22.70
2022-08-26T03:09:28.671Z,21.80
2022-08-26T03:10:28.652Z,24.80
2022-08-26T03:11:32.970Z,23.30
2022-08-26T03:12:28.623Z,22.50
2022-08-26T03:13:28.603Z,20.80
2022-08-26T03:14:28.604Z,19.60
2022-08-26T03:15:28.584Z,19.80
2022-08-26T03:16:32.347Z,19.50
2022-08-26T03:17:28.555Z,20.20
2022-08-26T03:18:28.546Z,20.70
2022-08-26T03:19:28.533Z,22.40
2022-08-26T03:20:28.521Z,21.80
2022-08-26T03:21:28.503Z,29.00
2022-08-26T03:22:28.495Z,27.40
2022-08-26T03:23:28.475Z,21.50
2022-08-26T03:24:28.485Z,24.60
2022-08-26T03:25:28.445Z,25.20
2022-08-26T03:26:28.448Z,23.10
2022-08-26T03:27:28.422Z,25.60
2022-08-26T03:28:28.419Z,25.60
2022-08-26T03:29:28.416Z,26.90
2022-08-26T03:30:28.384Z,24.90
2022-08-26T03:31:28.392Z,22.90
2022-08-26T03:32:28.355Z,22.60
2022-08-26T03:33:28.345Z,24.50
2022-08-26T03:34:28.349Z,20.00
2022-08-26T03:35:28.314Z,22.80
2022-08-26T03:36:28.304Z,38.90
2022-08-26T03:37:28.284Z,54.60
2022-08-26T03:38:28.274Z,58.00
2022-08-26T03:39:28.275Z,44.30
2022-08-26T03:40:29.014Z,35.30
2022-08-26T03:41:28.246Z,32.40
2022-08-26T03:42:28.224Z,27.60
2022-08-26T03:43:28.206Z,28.30
2022-08-26T03:44:28.210Z,27.40
2022-08-26T03:45:28.186Z,38.50
2022-08-26T03:46:28.232Z,34.20
2022-08-26T03:47:28.156Z,41.20
2022-08-26T03:48:28.149Z,43.00
2022-08-26T03:49:28.918Z,40.20
2022-08-26T03:50:28.123Z,50.60
2022-08-26T03:51:28.107Z,49.40
2022-08-26T03:52:28.101Z,48.20
2022-08-26T03:53:28.080Z,43.90
2022-08-26T03:54:28.075Z,49.20
2022-08-26T03:55:28.043Z,43.00
2022-08-26T03:56:28.045Z,49.20
2022-08-26T03:57:28.034Z,33.70
2022-08-26T03:58:28.034Z,32.40
2022-08-26T03:59:28.006Z,28.40
2022-08-26T04:00:27.984Z,31.00
2022-08-26T04:01:28.031Z,23.70
2022-08-26T04:02:27.990Z,23.10
2022-08-26T04:03:27.976Z,28.20
2022-08-26T04:04:27.952Z,23.20
2022-08-26T04:05:27.917Z,20.60
2022-08-26T04:06:27.908Z,26.80
2022-08-26T04:07:27.890Z,22.20
2022-08-26T04:08:28.038Z,18.50
2022-08-26T04:09:27.873Z,20.30
2022-08-26T04:10:29.316Z,22.00
2022-08-26T04:11:27.833Z,17.70
2022-08-26T04:12:27.824Z,21.30
2022-08-26T04:13:27.805Z,23.10
2022-08-26T04:14:27.815Z,22.70
2022-08-26T04:15:27.787Z,23.20
2022-08-26T04:16:27.818Z,25.20
2022-08-26T04:17:27.754Z,21.60
2022-08-26T04:18:31.382Z,22.40
2022-08-26T04:19:28.754Z,20.20
2022-08-26T04:20:27.730Z,21.50
2022-08-26T04:21:27.704Z,22.60
2022-08-26T04:22:27.694Z,26.40
2022-08-26T04:23:27.680Z,24.30
2022-08-26T04:24:27.899Z,24.80
2022-08-26T04:25:27.647Z,48.10
2022-08-26T04:26:27.643Z,37.30
2022-08-26T04:27:27.626Z,27.30
2022-08-26T04:28:27.613Z,29.90
2022-08-26T04:29:27.606Z,25.00
2022-08-26T04:30:27.601Z,22.50
2022-08-26T04:31:27.600Z,23.10
2022-08-26T04:32:27.555Z,22.30
2022-08-26T04:33:32.271Z,20.10
2022-08-26T04:34:28.951Z,18.30
2022-08-26T04:35:27.524Z,19.80
2022-08-26T04:36:27.518Z,18.10
2022-08-26T04:37:27.494Z,17.30
2022-08-26T04:38:27.494Z,18.00
2022-08-26T04:39:27.787Z,20.40
2022-08-26T04:40:27.625Z,17.40
2022-08-26T04:41:27.437Z,17.80
2022-08-26T04:42:27.425Z,16.90
2022-08-26T04:43:27.427Z,16.90
2022-08-26T04:44:27.396Z,16.30
2022-08-26T04:45:27.388Z,16.90
2022-08-26T04:46:27.443Z,13.40
2022-08-26T04:47:32.124Z,13.80
2022-08-26T04:48:28.365Z,15.70
2022-08-26T04:49:27.511Z,15.40
2022-08-26T04:50:27.323Z,13.00
2022-08-26T04:51:27.349Z,14.90
2022-08-26T04:52:27.307Z,11.90
2022-08-26T04:53:27.285Z,14.40
2022-08-26T04:54:27.269Z,15.10
2022-08-26T04:55:38.680Z,19.00
2022-08-26T04:56:28.235Z,24.50
2022-08-26T04:57:27.216Z,22.90
2022-08-26T04:58:27.235Z,24.70
2022-08-26T04:59:27.195Z,21.00
2022-08-26T05:00:27.191Z,18.40
2022-08-26T05:01:27.198Z,19.00
2022-08-26T05:02:27.158Z,23.80
2022-08-26T05:03:27.184Z,28.20
2022-08-26T05:04:27.163Z,26.50
2022-08-26T05:05:27.118Z,29.90
2022-08-26T05:06:27.106Z,25.00
2022-08-26T05:07:27.095Z,24.40
2022-08-26T05:08:27.087Z,23.50
2022-08-26T05:09:27.064Z,26.80
2022-08-26T05:10:27.055Z,24.10
2022-08-26T05:11:27.058Z,32.20
2022-08-26T05:12:27.035Z,31.60
2022-08-26T05:13:27.026Z,32.00
2022-08-26T05:14:27.009Z,27.50
2022-08-26T05:15:26.987Z,22.40
2022-08-26T05:16:27.012Z,27.70
2022-08-26T05:17:26.957Z,26.20
2022-08-26T05:18:26.968Z,23.20
2022-08-26T05:19:27.994Z,58.60
2022-08-26T05:20:26.925Z,63.70
2022-08-26T05:21:27.064Z,53.70
2022-08-26T05:22:26.899Z,59.00
2022-08-26T05:23:26.897Z,72.60
2022-08-26T05:24:26.870Z,100.80
2022-08-26T05:25:27.457Z,69.70
2022-08-26T05:26:26.857Z,55.90
2022-08-26T05:27:26.828Z,55.40
2022-08-26T05:28:26.832Z,33.60
2022-08-26T05:29:26.796Z,37.20
2022-08-26T05:30:26.788Z,33.50
2022-08-26T05:31:26.851Z,38.50
2022-08-26T05:32:26.865Z,37.30
2022-08-26T05:33:27.902Z,70.70
2022-08-26T05:34:30.095Z,96.40
2022-08-26T05:35:26.727Z,82.60
2022-08-26T05:36:26.969Z,154.20
2022-08-26T05:37:26.696Z,217.90
2022-08-26T05:38:30.330Z,84.30
2022-08-26T05:39:26.658Z,38.80
2022-08-26T05:40:26.732Z,60.50
2022-08-26T05:41:26.653Z,65.30
2022-08-26T05:42:27.641Z,56.30
2022-08-26T05:43:26.629Z,60.70
2022-08-26T05:44:26.609Z,52.60
2022-08-26T05:45:26.580Z,37.00
2022-08-26T05:46:26.598Z,35.00
2022-08-26T05:47:26.566Z,37.70
2022-08-26T05:48:26.557Z,34.50
2022-08-26T05:49:26.668Z,27.40
2022-08-26T05:50:26.521Z,27.70
2022-08-26T05:51:26.511Z,29.30
2022-08-26T05:52:26.498Z,24.50
2022-08-26T05:53:26.489Z,32.20
2022-08-26T05:54:26.481Z,30.90
2022-08-26T05:55:26.450Z,28.40
2022-08-26T05:56:26.456Z,30.70
2022-08-26T05:57:26.431Z,26.80
2022-08-26T05:58:26.747Z,27.70
2022-08-26T05:59:26.401Z,28.50
2022-08-26T06:00:26.390Z,30.50
2022-08-26T06:01:26.485Z,26.60
2022-08-26T06:02:26.428Z,25.30
2022-08-26T06:03:26.365Z,26.80
2022-08-26T06:04:27.849Z,27.80
2022-08-26T06:05:26.322Z,25.50
2022-08-26T06:06:29.152Z,30.60
2022-08-26T06:07:26.300Z,26.60
2022-08-26T06:08:26.303Z,26.20
2022-08-26T06:09:26.260Z,24.60
2022-08-26T06:10:32.654Z,26.10
2022-08-26T06:11:27.240Z,26.80
2022-08-26T06:12:26.244Z,32.50
2022-08-26T06:13:26.242Z,35.00
2022-08-26T06:14:26.209Z,25.70
2022-08-26T06:15:26.191Z,25.10
2022-08-26T06:16:26.245Z,27.90
2022-08-26T06:17:26.163Z,25.90
2022-08-26T06:18:26.161Z,22.30
2022-08-26T06:19:26.130Z,26.20
2022-08-26T06:20:27.124Z,19.50
2022-08-26T06:21:26.118Z,27.30
2022-08-26T06:22:26.101Z,29.40
2022-08-26T06:23:26.091Z,23.60
2022-08-26T06:24:27.157Z,23.80
2022-08-26T06:25:26.063Z,24.10
2022-08-26T06:26:26.051Z,21.20
2022-08-26T06:27:30.593Z,23.70
2022-08-26T06:28:27.048Z,21.70
2022-08-26T06:29:26.010Z,20.10
2022-08-26T06:30:26.050Z,20.50
2022-08-26T06:31:26.023Z,18.80
2022-08-26T06:32:25.974Z,25.00
2022-08-26T06:33:25.973Z,23.30
2022-08-26T06:34:26.728Z,20.40
2022-08-26T06:35:25.932Z,20.50
2022-08-26T06:36:25.923Z,21.70
2022-08-26T06:37:25.903Z,22.90
2022-08-26T06:38:25.914Z,23.30
2022-08-26T06:39:25.887Z,18.20
2022-08-26T06:40:26.017Z,22.70
2022-08-26T06:41:25.931Z,20.80
2022-08-26T06:42:25.869Z,21.30
2022-08-26T06:43:25.849Z,20.50
2022-08-26T06:44:25.832Z,20.80
2022-08-26T06:45:25.805Z,23.20
2022-08-26T06:46:25.926Z,19.60
2022-08-26T06:47:25.791Z,19.70
2022-08-26T06:48:25.791Z,18.10
2022-08-26T06:49:27.454Z,19.60
2022-08-26T06:50:25.735Z,18.10
2022-08-26T06:51:25.728Z,18.30
2022-08-26T06:52:25.717Z,18.40
2022-08-26T06:53:25.717Z,19.90
2022-08-26T06:54:25.699Z,21.80
2022-08-26T06:55:26.809Z,23.40
2022-08-26T06:56:25.660Z,21.70
2022-08-26T06:57:25.677Z,22.30
2022-08-26T06:58:25.647Z,18.60
2022-08-26T06:59:25.641Z,18.20
2022-08-26T07:00:25.637Z,16.90
2022-08-26T07:01:25.639Z,19.20
2022-08-26T07:02:28.441Z,23.40
2022-08-26T07:03:25.604Z,78.70
2022-08-26T07:04:27.793Z,148.20
2022-08-26T07:05:25.571Z,507.50
2022-08-26T07:06:25.530Z,247.00
2022-08-26T07:07:26.075Z,487.00
2022-08-26T07:08:25.524Z,602.20
2022-08-26T07:09:25.505Z,609.50
2022-08-26T07:10:25.490Z,619.20
2022-08-26T07:11:25.497Z,521.70
2022-08-26T07:12:25.462Z,485.80
2022-08-26T07:13:30.482Z,485.20
2022-08-26T07:14:26.501Z,507.10
2022-08-26T07:15:31.032Z,510.60
2022-08-26T07:16:26.424Z,498.00
2022-08-26T07:17:25.403Z,480.00
2022-08-26T07:18:25.408Z,521.30
2022-08-26T07:19:30.133Z,513.20
2022-08-26T07:20:26.354Z,651.90
2022-08-26T07:21:25.375Z,922.00
2022-08-26T07:22:25.381Z,1050.70
2022-08-26T07:23:25.351Z,1088.40
2022-08-26T07:24:28.417Z,1121.50
2022-08-26T07:25:25.350Z,1139.60
2022-08-26T07:26:25.286Z,1157.90
2022-08-26T07:27:25.309Z,733.30
2022-08-26T07:28:25.284Z,1999.90
2022-08-26T07:29:25.245Z,1999.90
2022-08-26T07:30:25.246Z,959.10
2022-08-26T07:32:21.050Z,688.30
2022-08-26T07:33:21.042Z,1999.90
2022-08-26T07:34:21.034Z,521.60
2022-08-26T07:35:21.053Z,1999.90
2022-08-26T07:36:21.004Z,1999.90
2022-08-26T07:37:21.015Z,1999.90
2022-08-26T07:38:20.989Z,707.20
2022-08-26T07:39:20.983Z,1999.90
2022-08-26T07:40:21.066Z,1669.20
2022-08-26T07:41:20.976Z,1529.80
2022-08-26T07:42:20.937Z,1216.70
2022-08-26T07:43:20.938Z,1732.10
2022-08-26T07:44:20.914Z,1737.60
2022-08-26T07:45:20.913Z,1917.20
2022-08-26T07:46:27.041Z,1580.60
2022-08-26T07:47:24.860Z,1849.00
2022-08-26T07:48:25.766Z,1881.50
2022-08-26T07:49:20.971Z,1745.30
2022-08-26T07:50:20.897Z,1608.10
2022-08-26T07:51:21.827Z,1836.90
2022-08-26T07:52:25.537Z,1860.80
2022-08-26T07:53:21.829Z,1999.90
2022-08-26T07:54:20.788Z,1416.40
2022-08-26T07:55:21.799Z,1933.20
2022-08-26T07:56:20.788Z,1874.50
2022-08-26T07:57:20.769Z,1999.90
2022-08-26T07:58:20.749Z,1999.90
2022-08-26T07:59:20.748Z,1999.90
2022-08-26T08:00:20.803Z,1999.90
2022-08-26T08:01:20.800Z,1999.90
2022-08-26T08:02:20.701Z,1999.90
2022-08-26T08:03:20.706Z,1999.90
2022-08-26T08:04:26.169Z,1999.90
2022-08-26T08:05:21.851Z,1999.90
2022-08-26T08:06:20.653Z,1999.90
2022-08-26T08:07:20.646Z,871.60
2022-08-26T08:08:26.533Z,1999.90
2022-08-26T08:09:22.422Z,1999.90
2022-08-26T08:10:20.864Z,1999.90
2022-08-26T08:11:20.600Z,1999.90
2022-08-26T08:12:20.590Z,1999.90
2022-08-26T08:13:20.581Z,1308.20
2022-08-26T08:14:22.241Z,781.60
2022-08-26T08:15:20.634Z,641.60
2022-08-26T08:16:20.651Z,1999.90
2022-08-26T08:17:20.530Z,871.70
2022-08-26T08:18:20.770Z,1999.90
2022-08-26T08:19:20.517Z,1999.90
2022-08-26T08:20:20.482Z,1999.90
2022-08-26T08:21:22.010Z,1999.90
2022-08-26T08:22:20.462Z,1999.90
2022-08-26T08:23:20.505Z,1999.90
2022-08-26T08:24:20.463Z,1999.90
2022-08-26T08:25:20.433Z,1999.90
2022-08-26T08:26:20.424Z,1999.90
2022-08-26T08:27:23.666Z,1999.90
2022-08-26T08:28:20.406Z,1999.90
2022-08-26T08:29:20.387Z,1999.90
2022-08-26T08:30:22.648Z,1999.90
2022-08-26T08:31:38.529Z,438.00
2022-08-26T08:32:21.365Z,421.10
2022-08-26T08:33:20.345Z,1999.90
2022-08-26T08:34:21.451Z,1999.90
2022-08-26T08:35:20.325Z,1999.90
2022-08-26T08:36:20.533Z,1999.90
2022-08-26T08:37:20.305Z,1999.90
2022-08-26T08:38:20.308Z,1999.90
2022-08-26T08:39:20.291Z,1999.90
2022-08-26T08:40:20.431Z,1999.90
2022-08-26T08:41:20.257Z,1999.90
2022-08-26T08:42:20.248Z,595.50
2022-08-26T08:43:20.231Z,221.40
2022-08-26T08:44:20.283Z,741.60
2022-08-26T08:45:20.209Z,1999.90
2022-08-26T08:46:20.275Z,726.30
2022-08-26T08:47:20.745Z,1999.90
2022-08-26T08:48:20.163Z,1999.90
2022-08-26T08:49:20.168Z,1999.90
2022-08-26T08:50:20.139Z,1999.90
2022-08-26T08:51:20.147Z,1999.90
2022-08-26T08:52:20.148Z,721.60
2022-08-26T08:53:20.122Z,1999.90
2022-08-26T08:54:21.983Z,204.00
2022-08-26T08:55:20.092Z,381.40
2022-08-26T08:56:20.068Z,1240.40
2022-08-26T08:57:20.090Z,1305.20
2022-08-26T08:58:20.039Z,1242.80
2022-08-26T08:59:20.047Z,1999.90
2022-08-26T09:00:20.029Z,1999.90
2022-08-26T09:01:21.074Z,460.00
2022-08-26T09:02:20.073Z,1999.90
2022-08-26T09:03:19.990Z,1047.40
2022-08-26T09:04:19.972Z,1153.30
2022-08-26T09:05:19.988Z,1178.40
2022-08-26T09:06:19.982Z,1187.10
2022-08-26T09:07:19.972Z,1999.90
2022-08-26T09:08:20.096Z,1127.90
2022-08-26T09:09:19.924Z,925.70
2022-08-26T09:10:19.904Z,1153.80
2022-08-26T09:11:19.905Z,1294.60
2022-08-26T09:12:19.896Z,1054.60
2022-08-26T09:13:25.293Z,1047.10
2022-08-26T09:14:20.852Z,1237.70
2022-08-26T09:15:19.853Z,1270.90
2022-08-26T09:16:20.295Z,1251.60
2022-08-26T09:17:19.863Z,1245.60
2022-08-26T09:18:19.805Z,1194.30
2022-08-26T09:19:19.846Z,1202.50
2022-08-26T09:20:19.802Z,1184.30
2022-08-26T09:21:19.794Z,1187.10
2022-08-26T09:22:19.831Z,1208.90
2022-08-26T09:23:19.759Z,1183.30
2022-08-26T09:24:19.735Z,1169.00
2022-08-26T09:25:19.736Z,1101.10
2022-08-26T09:26:19.717Z,1214.80
2022-08-26T09:27:19.746Z,1268.70
2022-08-26T09:28:19.694Z,1244.00
2022-08-26T09:30:19.667Z,1220.60
2022-08-26T09:31:19.730Z,1227.90
2022-08-26T09:32:20.289Z,1275.30
2022-08-26T09:33:19.656Z,1207.80
2022-08-26T09:34:19.649Z,1242.30
2022-08-26T09:35:19.614Z,1264.10
2022-08-26T09:36:19.597Z,1246.00
2022-08-26T09:37:19.587Z,1245.00
2022-08-26T09:38:19.587Z,1231.00
2022-08-26T09:39:19.555Z,1274.40
2022-08-26T09:40:20.354Z,1252.80
2022-08-26T09:41:19.538Z,1273.20
2022-08-26T09:42:19.555Z,1218.80
2022-08-26T09:43:22.771Z,1275.60
2022-08-26T09:44:19.500Z,1263.30
2022-08-26T09:45:19.501Z,1239.40
2022-08-26T09:46:19.561Z,1255.80
2022-08-26T09:47:19.478Z,1230.00
2022-08-26T09:48:19.480Z,1262.60
2022-08-26T09:49:19.440Z,1255.60
2022-08-26T09:50:19.441Z,1260.80
2022-08-26T09:51:19.452Z,1239.20
2022-08-26T09:52:19.423Z,1274.90
2022-08-26T09:53:20.968Z,1242.80
2022-08-26T09:54:20.720Z,1232.80
2022-08-26T09:55:19.379Z,1263.10
2022-08-26T09:56:19.381Z,1246.10
2022-08-26T09:57:19.361Z,1237.70
2022-08-26T09:58:19.362Z,1203.70
2022-08-26T09:59:19.313Z,1212.20
2022-08-26T10:00:19.321Z,1165.50
2022-08-26T10:01:19.593Z,1194.90
2022-08-26T10:02:19.296Z,1205.30
2022-08-26T10:03:19.269Z,1222.90
2022-08-26T10:04:19.324Z,1182.10
2022-08-26T10:05:19.276Z,1176.80
2022-08-26T10:06:21.141Z,1162.00
2022-08-26T10:07:19.264Z,1111.30
2022-08-26T10:08:19.263Z,1198.40
2022-08-26T10:09:19.214Z,1189.80
2022-08-26T10:10:19.197Z,1182.60
2022-08-26T10:11:19.185Z,1183.40
2022-08-26T10:12:19.172Z,1150.50
2022-08-26T10:13:19.147Z,1194.60
2022-08-26T10:14:19.150Z,1181.30
2022-08-26T10:15:19.159Z,1204.90
2022-08-26T10:16:19.181Z,1154.80
2022-08-26T10:17:19.118Z,1185.10
2022-08-26T10:18:19.101Z,1163.20
2022-08-26T10:19:41.674Z,1209.00
2022-08-26T10:20:23.590Z,1166.40
2022-08-26T10:21:19.048Z,1176.60
2022-08-26T10:22:19.062Z,1199.70
2022-08-26T10:23:19.032Z,1229.90
2022-08-26T10:24:19.020Z,1199.10
2022-08-26T10:25:19.015Z,1218.70
2022-08-26T10:26:19.020Z,1148.70
2022-08-26T10:27:19.002Z,1101.90
2022-08-26T10:28:18.972Z,1172.70
2022-08-26T10:29:18.950Z,1140.70
2022-08-26T10:30:18.970Z,1196.40
2022-08-26T10:31:18.947Z,1209.00
2022-08-26T10:32:19.002Z,1066.90
2022-08-26T10:33:18.907Z,940.00
2022-08-26T10:34:18.904Z,1246.80
2022-08-26T10:35:18.903Z,1261.50
2022-08-26T10:36:20.391Z,1232.80
2022-08-26T10:37:18.889Z,1233.70
2022-08-26T10:38:18.864Z,1219.90
2022-08-26T10:39:18.835Z,1237.10
2022-08-26T10:40:18.909Z,1232.30
2022-08-26T10:41:18.804Z,1203.40
2022-08-26T10:42:18.835Z,1225.50
2022-08-26T10:43:18.839Z,1149.70
2022-08-26T10:44:18.778Z,1132.90
2022-08-26T10:45:18.764Z,1156.70
2022-08-26T10:46:18.808Z,1092.20
2022-08-26T10:47:18.756Z,1226.50
2022-08-26T10:48:18.728Z,1140.90
2022-08-26T10:49:18.728Z,1153.80
2022-08-26T10:50:18.941Z,1212.60
2022-08-26T10:51:18.705Z,1235.20
2022-08-26T10:52:18.702Z,990.90
2022-08-26T10:53:18.683Z,1169.90
2022-08-26T10:54:19.676Z,1090.60
2022-08-26T10:55:18.650Z,1258.80
2022-08-26T10:56:19.387Z,1215.10
2022-08-26T10:57:18.626Z,1238.60
2022-08-26T10:58:26.317Z,1216.70
2022-08-26T10:59:19.593Z,1232.00
2022-08-26T11:00:18.586Z,1237.70
2022-08-26T11:01:22.823Z,1206.60
2022-08-26T11:02:22.794Z,1190.10
2022-08-26T11:03:22.381Z,1211.70
2022-08-26T11:04:18.621Z,1206.60
2022-08-26T11:05:18.533Z,1210.30
2022-08-26T11:06:18.542Z,1082.90
2022-08-26T11:07:18.490Z,1167.70
2022-08-26T11:08:18.491Z,1193.50
2022-08-26T11:09:18.476Z,1199.00
2022-08-26T11:10:19.481Z,1172.30
2022-08-26T11:11:18.453Z,1112.70
2022-08-26T11:12:18.454Z,1210.70
2022-08-26T11:13:18.428Z,1224.30
2022-08-26T11:14:18.414Z,1159.00
2022-08-26T11:15:19.402Z,1212.80
2022-08-26T11:16:19.457Z,1172.80
2022-08-26T11:17:18.377Z,1194.00
2022-08-26T11:18:18.371Z,1082.10
2022-08-26T11:19:18.372Z,1131.90
2022-08-26T11:20:19.352Z,1999.90
2022-08-26T11:21:18.358Z,1119.30
2022-08-26T11:22:19.320Z,1171.10
2022-08-26T11:23:18.313Z,1127.40
2022-08-26T11:24:18.340Z,1169.20
2022-08-26T11:25:18.468Z,1130.40
2022-08-26T11:26:35.562Z,1084.90
2022-08-26T11:27:19.257Z,980.00
2022-08-26T11:28:18.257Z,1104.40
2022-08-26T11:29:18.227Z,1114.20
2022-08-26T11:30:18.503Z,1216.50
2022-08-26T11:31:18.252Z,1213.40
2022-08-26T11:32:18.209Z,1160.90
2022-08-26T11:33:18.207Z,1232.90
2022-08-26T11:34:18.186Z,1196.10
2022-08-26T11:35:18.156Z,1175.20
2022-08-26T11:36:18.156Z,1028.90
2022-08-26T11:37:18.150Z,989.10
2022-08-26T11:38:18.136Z,863.20
2022-08-26T11:39:18.115Z,1131.40
2022-08-26T11:40:18.139Z,1209.40
2022-08-26T11:41:18.116Z,1179.50
2022-08-26T11:42:20.155Z,1169.30
2022-08-26T11:43:18.080Z,924.20
2022-08-26T11:44:18.108Z,1189.30
2022-08-26T11:45:18.135Z,1157.40
2022-08-26T11:46:18.085Z,1137.10
2022-08-26T11:47:18.018Z,1146.20
2022-08-26T11:48:18.009Z,933.60
2022-08-26T11:49:17.999Z,1001.50
2022-08-26T11:50:17.992Z,1212.30
2022-08-26T11:51:17.959Z,1118.40
2022-08-26T11:52:17.973Z,1056.80
2022-08-26T11:53:17.961Z,1107.20
2022-08-26T11:54:17.954Z,1146.70
2022-08-26T11:55:19.211Z,1103.30
2022-08-26T11:56:17.956Z,1089.80
2022-08-26T11:57:17.900Z,1142.40
2022-08-26T11:58:17.953Z,1135.50
2022-08-26T11:59:17.909Z,1025.10
2022-08-26T12:00:20.946Z,1025.60
2022-08-26T12:01:17.867Z,1999.90
2022-08-26T12:02:18.167Z,1999.90
2022-08-26T12:03:17.870Z,1999.90
2022-08-26T12:04:17.909Z,1999.90
2022-08-26T12:05:17.790Z,1999.90
2022-08-26T12:06:17.845Z,1999.90
2022-08-26T12:07:23.733Z,589.30
2022-08-26T12:08:18.790Z,1117.00
2022-08-26T12:09:17.755Z,1127.70
2022-08-26T12:10:17.758Z,1128.50
2022-08-26T12:11:17.724Z,1999.90
2022-08-26T12:12:17.712Z,1999.90
2022-08-26T12:13:17.694Z,1999.90
2022-08-26T12:14:17.735Z,1999.90
2022-08-26T12:15:17.677Z,1999.90
2022-08-26T12:16:17.720Z,438.60
2022-08-26T12:17:17.669Z,1999.90
2022-08-26T12:18:17.672Z,1999.90
2022-08-26T12:19:17.644Z,805.00
2022-08-26T12:20:17.617Z,1165.90
2022-08-26T12:21:17.599Z,1153.20
2022-08-26T12:22:17.596Z,1211.90
2022-08-26T12:23:17.588Z,1162.80
2022-08-26T12:24:17.571Z,1175.20
2022-08-26T12:25:17.572Z,1167.40
2022-08-26T12:26:17.572Z,1174.40
2022-08-26T12:27:17.520Z,1176.20
2022-08-26T12:28:17.603Z,1148.40
2022-08-26T12:29:19.998Z,1166.00
2022-08-26T12:30:19.371Z,1142.00
2022-08-26T12:31:17.607Z,1124.10
2022-08-26T12:32:17.459Z,1148.50
2022-08-26T12:33:22.546Z,1146.60
2022-08-26T12:34:18.660Z,1126.70